createdAt,value
2016-06-28T00:00:23.658Z,21.89
2016-06-28T00:01:23.618Z,21.83
2016-06-28T00:02:23.812Z,21.85
2016-06-28T00:03:23.630Z,21.86
2016-06-28T00:04:23.602Z,21.85
2016-06-28T00:05:23.651Z,21.82
2016-06-28T00:06:23.608Z,21.77
2016-06-28T00:07:23.800Z,21.8
2016-06-28T00:08:23.615Z,21.83
2016-06-28T00:09:23.605Z,21.83
2016-06-28T00:10:23.603Z,21.86
2016-06-28T00:11:23.589Z,21.76
2016-06-28T00:12:23.596Z,21.8
2016-06-28T00:13:23.604Z,21.67
2016-06-28T00:14:23.786Z,21.78
2016-06-28T00:15:23.598Z,21.71
2016-06-28T00:16:23.799Z,21.77
2016-06-28T00:17:23.594Z,21.77
2016-06-28T00:18:23.594Z,21.73
2016-06-28T00:19:23.593Z,21.78
2016-06-28T00:20:23.595Z,21.73
2016-06-28T00:21:23.591Z,21.77
2016-06-28T00:22:23.584Z,21.78
2016-06-28T00:23:23.586Z,21.76
2016-06-28T00:24:23.595Z,21.74
2016-06-28T00:25:23.600Z,21.73
2016-06-28T00:26:23.582Z,21.73
2016-06-28T00:27:23.582Z,21.74
2016-06-28T00:28:23.585Z,21.74
2016-06-28T00:29:23.575Z,21.71
2016-06-28T00:30:23.584Z,21.76
2016-06-28T00:31:23.570Z,21.77
2016-06-28T00:32:23.569Z,21.7
2016-06-28T00:33:23.583Z,21.82
2016-06-28T00:34:23.590Z,21.67
2016-06-28T00:35:23.785Z,21.67
2016-06-28T00:36:23.580Z,21.62
2016-06-28T00:37:23.598Z,21.71
2016-06-28T00:38:23.587Z,21.68
2016-06-28T00:39:23.577Z,21.68
2016-06-28T00:40:23.598Z,21.71
2016-06-28T00:41:23.565Z,21.76
2016-06-28T00:42:23.587Z,21.73
2016-06-28T00:43:23.561Z,21.71
2016-06-28T00:44:23.566Z,21.68
2016-06-28T00:45:23.559Z,21.74
2016-06-28T00:46:23.563Z,21.82
2016-06-28T00:47:23.575Z,21.74
2016-06-28T00:48:23.575Z,21.64
2016-06-28T00:49:23.562Z,21.7
2016-06-28T00:50:23.781Z,21.66
2016-06-28T00:51:23.760Z,21.71
2016-06-28T00:52:23.567Z,21.7
2016-06-28T00:53:23.549Z,21.7
2016-06-28T00:54:23.767Z,21.68
2016-06-28T00:55:23.546Z,21.67
2016-06-28T00:56:23.543Z,21.71
2016-06-28T00:57:23.553Z,21.71
2016-06-28T00:58:23.547Z,21.7
2016-06-28T00:59:23.541Z,21.71
2016-06-28T01:00:23.564Z,21.62
2016-06-28T01:01:23.538Z,21.61
2016-06-28T01:02:23.534Z,21.68
2016-06-28T01:03:23.547Z,21.61
2016-06-28T01:04:23.556Z,21.67
2016-06-28T01:05:23.587Z,21.61
2016-06-28T01:06:23.533Z,21.64
2016-06-28T01:07:23.532Z,21.64
2016-06-28T01:08:23.532Z,21.64
2016-06-28T01:09:23.531Z,21.59
2016-06-28T01:10:23.522Z,21.64
2016-06-28T01:11:23.732Z,21.59
2016-06-28T01:12:23.528Z,21.67
2016-06-28T01:13:23.721Z,21.64
2016-06-28T01:14:23.526Z,21.66
2016-06-28T01:15:23.526Z,21.64
2016-06-28T01:16:23.531Z,21.62
2016-06-28T01:17:23.542Z,21.61
2016-06-28T01:18:23.526Z,21.59
2016-06-28T01:19:23.522Z,21.55
2016-06-28T01:20:23.723Z,21.46
2016-06-28T01:21:23.727Z,21.61
2016-06-28T01:22:23.521Z,21.53
2016-06-28T01:23:23.514Z,21.49
2016-06-28T01:24:23.715Z,21.51
2016-06-28T01:25:23.504Z,21.49
2016-06-28T01:26:23.511Z,21.59
2016-06-28T01:27:23.725Z,21.55
2016-06-28T01:28:23.518Z,21.53
2016-06-28T01:29:23.518Z,21.56
2016-06-28T01:30:23.502Z,21.56
2016-06-28T01:31:23.508Z,21.55
2016-06-28T01:32:23.510Z,21.53
2016-06-28T01:33:23.497Z,21.52
2016-06-28T01:34:23.503Z,21.48
2016-06-28T01:35:23.505Z,21.51
2016-06-28T01:36:23.494Z,21.49
2016-06-28T01:37:23.491Z,21.45
2016-06-28T01:38:23.494Z,21.45
2016-06-28T01:39:23.486Z,21.48
2016-06-28T01:40:23.493Z,21.46
2016-06-28T01:41:23.486Z,21.48
2016-06-28T01:42:23.697Z,21.46
2016-06-28T01:43:23.501Z,21.46
2016-06-28T01:44:23.482Z,21.45
2016-06-28T01:45:23.475Z,21.48
2016-06-28T01:46:23.483Z,21.51
2016-06-28T01:47:23.478Z,21.45
2016-06-28T01:48:23.482Z,21.37
2016-06-28T01:49:23.473Z,21.4
2016-06-28T01:50:23.679Z,21.33
2016-06-28T01:51:23.487Z,21.41
2016-06-28T01:52:23.479Z,21.48
2016-06-28T01:53:23.494Z,21.43
2016-06-28T01:54:23.470Z,21.34
2016-06-28T01:55:23.481Z,21.48
2016-06-28T01:56:23.468Z,21.34
2016-06-28T01:57:23.687Z,21.31
2016-06-28T01:58:23.467Z,21.36
2016-06-28T01:59:23.474Z,21.37
2016-06-28T02:00:23.470Z,21.33
2016-06-28T02:01:23.485Z,21.37
2016-06-28T02:02:23.465Z,21.33
2016-06-28T02:03:23.858Z,21.37
2016-06-28T02:04:23.464Z,21.33
2016-06-28T02:05:23.509Z,21.41
2016-06-28T02:06:23.467Z,21.4
2016-06-28T02:07:23.466Z,21.34
2016-06-28T02:08:23.444Z,21.36
2016-06-28T02:09:23.472Z,21.36
2016-06-28T02:10:23.466Z,21.3
2016-06-28T02:11:23.446Z,21.3
2016-06-28T02:12:23.450Z,21.34
2016-06-28T02:13:23.648Z,21.23
2016-06-28T02:14:23.458Z,21.33
2016-06-28T02:15:23.445Z,21.31
2016-06-28T02:16:23.428Z,21.22
2016-06-28T02:17:23.446Z,21.3
2016-06-28T02:18:23.442Z,21.27
2016-06-28T02:19:23.441Z,21.19
2016-06-28T02:20:23.433Z,21.22
2016-06-28T02:21:23.440Z,21.25
2016-06-28T02:22:23.458Z,21.23
2016-06-28T02:23:23.441Z,21.25
2016-06-28T02:24:23.423Z,21.21
2016-06-28T02:25:23.637Z,21.3
2016-06-28T02:26:23.468Z,21.23
2016-06-28T02:27:23.429Z,21.22
2016-06-28T02:28:23.433Z,21.34
2016-06-28T02:29:23.432Z,21.27
2016-06-28T02:30:23.429Z,21.25
2016-06-28T02:31:23.466Z,21.25
2016-06-28T02:32:23.635Z,21.22
2016-06-28T02:33:23.415Z,21.12
2016-06-28T02:34:23.610Z,21.22
2016-06-28T02:35:23.402Z,21.23
2016-06-28T02:36:23.414Z,21.21
2016-06-28T02:37:23.412Z,21.21
2016-06-28T02:38:23.411Z,21.15
2016-06-28T02:39:23.395Z,21.16
2016-06-28T02:40:23.395Z,21.15
2016-06-28T02:41:23.399Z,21.16
2016-06-28T02:42:23.405Z,21.12
2016-06-28T02:43:23.594Z,21.19
2016-06-28T02:44:23.391Z,21.16
2016-06-28T02:45:23.606Z,21.22
2016-06-28T02:46:23.402Z,21.18
2016-06-28T02:47:23.390Z,21.16
2016-06-28T02:48:23.399Z,21.21
2016-06-28T02:49:23.392Z,21.15
2016-06-28T02:50:23.391Z,21.18
2016-06-28T02:51:23.396Z,21.06
2016-06-28T02:52:23.390Z,21.08
2016-06-28T02:53:23.380Z,21.08
2016-06-28T02:54:23.375Z,21.08
2016-06-28T02:55:23.360Z,21.06
2016-06-28T02:56:23.368Z,21.04
2016-06-28T02:57:23.370Z,21.03
2016-06-28T02:58:23.358Z,21.08
2016-06-28T02:59:23.361Z,21.08
2016-06-28T03:00:23.365Z,21.06
2016-06-28T03:01:23.378Z,21.09
2016-06-28T03:02:23.367Z,21.09
2016-06-28T03:03:23.366Z,21.01
2016-06-28T03:04:23.570Z,20.94
2016-06-28T03:05:23.399Z,20.97
2016-06-28T03:06:23.335Z,21.12
2016-06-28T03:07:23.341Z,21.06
2016-06-28T03:08:23.351Z,21.01
2016-06-28T03:09:23.349Z,21.04
2016-06-28T03:10:23.333Z,21.06
2016-06-28T03:11:23.341Z,21.09
2016-06-28T03:12:23.551Z,21.04
2016-06-28T03:13:23.363Z,21.06
2016-06-28T03:14:23.342Z,21.03
2016-06-28T03:15:23.327Z,21.01
2016-06-28T03:16:23.336Z,20.98
2016-06-28T03:17:23.351Z,20.98
2016-06-28T03:18:23.339Z,21.04
2016-06-28T03:19:23.329Z,21.01
2016-06-28T03:20:23.317Z,20.98
2016-06-28T03:21:23.335Z,21
2016-06-28T03:22:23.330Z,20.98
2016-06-28T03:23:23.323Z,20.97
2016-06-28T03:24:23.319Z,20.93
2016-06-28T03:25:23.521Z,21.03
2016-06-28T03:26:23.321Z,20.96
2016-06-28T03:27:23.311Z,20.96
2016-06-28T03:28:23.309Z,20.94
2016-06-28T03:29:23.318Z,20.9
2016-06-28T03:30:23.309Z,20.91
2016-06-28T03:31:23.306Z,20.97
2016-06-28T03:32:23.314Z,20.91
2016-06-28T03:33:23.313Z,20.91
2016-06-28T03:34:23.303Z,21.01
2016-06-28T03:35:23.301Z,20.9
2016-06-28T03:36:23.296Z,20.97
2016-06-28T03:37:23.304Z,20.93
2016-06-28T03:38:23.310Z,20.96
2016-06-28T03:39:23.307Z,20.94
2016-06-28T03:40:23.296Z,20.9
2016-06-28T03:41:23.302Z,20.96
2016-06-28T03:42:23.279Z,20.93
2016-06-28T03:43:23.287Z,20.88
2016-06-28T03:44:23.312Z,20.88
2016-06-28T03:45:23.310Z,20.94
2016-06-28T03:46:23.307Z,20.91
2016-06-28T03:47:23.323Z,20.91
2016-06-28T03:48:23.326Z,20.91
2016-06-28T03:49:23.290Z,20.9
2016-06-28T03:50:23.285Z,20.83
2016-06-28T03:51:23.484Z,20.86
2016-06-28T03:52:23.287Z,20.88
2016-06-28T03:53:23.279Z,20.79
2016-06-28T03:54:23.473Z,20.81
2016-06-28T03:55:23.267Z,20.9
2016-06-28T03:56:23.264Z,20.85
2016-06-28T03:57:23.500Z,20.86
2016-06-28T03:58:23.273Z,20.85
2016-06-28T03:59:23.282Z,20.85
2016-06-28T04:00:23.270Z,20.83
2016-06-28T04:01:23.252Z,20.83
2016-06-28T04:02:23.258Z,20.83
2016-06-28T04:03:23.260Z,20.81
2016-06-28T04:04:23.245Z,20.82
2016-06-28T04:05:23.303Z,20.79
2016-06-28T04:06:23.455Z,20.86
2016-06-28T04:07:23.245Z,20.82
2016-06-28T04:08:23.241Z,20.83
2016-06-28T04:09:23.285Z,20.81
2016-06-28T04:10:23.248Z,20.81
2016-06-28T04:11:23.248Z,20.79
2016-06-28T04:12:23.252Z,20.82
2016-06-28T04:13:23.269Z,20.81
2016-06-28T04:14:23.247Z,20.82
2016-06-28T04:15:23.236Z,20.82
2016-06-28T04:16:23.238Z,20.81
2016-06-28T04:17:23.246Z,20.74
2016-06-28T04:18:23.235Z,20.81
2016-06-28T04:19:23.414Z,20.85
2016-06-28T04:20:23.223Z,20.75
2016-06-28T04:21:23.229Z,20.79
2016-06-28T04:22:23.411Z,20.82
2016-06-28T04:23:23.263Z,20.79
2016-06-28T04:24:23.228Z,20.76
2016-06-28T04:25:23.211Z,20.72
2016-06-28T04:26:23.214Z,20.81
2016-06-28T04:27:23.209Z,20.76
2016-06-28T04:28:23.223Z,20.74
2016-06-28T04:29:23.228Z,20.82
2016-06-28T04:30:23.203Z,20.76
2016-06-28T04:31:23.198Z,20.75
2016-06-28T04:32:23.209Z,20.76
2016-06-28T04:33:23.206Z,20.76
2016-06-28T04:34:23.218Z,20.71
2016-06-28T04:35:23.192Z,20.72
2016-06-28T04:36:23.405Z,20.76
2016-06-28T04:37:23.194Z,20.71
2016-06-28T04:38:23.194Z,20.76
2016-06-28T04:39:23.205Z,20.72
2016-06-28T04:40:23.191Z,20.68
2016-06-28T04:41:23.192Z,20.74
2016-06-28T04:42:23.185Z,20.71
2016-06-28T04:43:23.425Z,20.79
2016-06-28T04:44:23.181Z,20.75
2016-06-28T04:45:23.397Z,20.78
2016-06-28T04:46:23.177Z,20.71
2016-06-28T04:47:23.218Z,20.74
2016-06-28T04:48:23.194Z,20.75
2016-06-28T04:49:23.165Z,20.68
2016-06-28T04:50:23.168Z,20.68
2016-06-28T04:51:23.384Z,20.75
2016-06-28T04:52:23.182Z,20.72
2016-06-28T04:53:23.174Z,20.74
2016-06-28T04:54:23.203Z,20.71
2016-06-28T04:55:23.169Z,20.75
2016-06-28T04:56:23.163Z,20.72
2016-06-28T04:57:23.162Z,20.76
2016-06-28T04:58:23.175Z,20.76
2016-06-28T04:59:23.159Z,20.71
2016-06-28T05:00:23.165Z,20.75
2016-06-28T05:01:23.180Z,20.75
2016-06-28T05:02:23.148Z,20.64
2016-06-28T05:03:23.170Z,20.68
2016-06-28T05:04:23.167Z,20.71
2016-06-28T05:05:23.193Z,20.75
2016-06-28T05:06:23.147Z,20.74
2016-06-28T05:07:23.144Z,20.72
2016-06-28T05:08:23.141Z,20.67
2016-06-28T05:09:23.362Z,20.72
2016-06-28T05:10:23.140Z,20.71
2016-06-28T05:11:23.142Z,20.64
2016-06-28T05:12:23.157Z,20.75
2016-06-28T05:13:23.152Z,20.72
2016-06-28T05:14:23.129Z,20.68
2016-06-28T05:15:23.135Z,20.74
2016-06-28T05:16:23.321Z,20.76
2016-06-28T05:17:23.113Z,20.67
2016-06-28T05:18:23.129Z,20.78
2016-06-28T05:19:54.408Z,20.67
2016-06-28T05:20:23.146Z,20.79
2016-06-28T05:21:23.111Z,20.71
2016-06-28T05:22:23.116Z,20.68
2016-06-28T05:23:23.102Z,20.75
2016-06-28T05:24:23.117Z,20.74
2016-06-28T05:25:23.089Z,20.71
2016-06-28T05:26:23.100Z,20.75
2016-06-28T05:27:23.290Z,20.72
2016-06-28T05:28:23.095Z,20.71
2016-06-28T05:29:23.286Z,20.74
2016-06-28T05:30:23.299Z,20.74
2016-06-28T05:31:23.092Z,20.71
2016-06-28T05:32:23.110Z,20.75
2016-06-28T05:33:23.072Z,20.75
2016-06-28T05:34:23.079Z,20.75
2016-06-28T05:35:23.086Z,20.75
2016-06-28T05:36:23.090Z,20.75
2016-06-28T05:37:23.101Z,20.75
2016-06-28T05:38:23.117Z,20.76
2016-06-28T05:39:23.084Z,20.72
2016-06-28T05:40:23.122Z,20.72
2016-06-28T05:41:23.079Z,20.71
2016-06-28T05:42:23.068Z,20.67
2016-06-28T05:43:23.263Z,20.74
2016-06-28T05:44:23.064Z,20.75
2016-06-28T05:45:23.051Z,20.68
2016-06-28T05:46:23.064Z,20.72
2016-06-28T05:47:23.064Z,20.72
2016-06-28T05:48:23.058Z,20.72
2016-06-28T05:49:23.258Z,20.75
2016-06-28T05:50:23.036Z,20.71
2016-06-28T05:51:23.041Z,20.72
2016-06-28T05:52:23.264Z,20.71
2016-06-28T05:53:23.243Z,20.75
2016-06-28T05:54:23.034Z,20.71
2016-06-28T05:55:23.049Z,20.68
2016-06-28T05:56:23.044Z,20.67
2016-06-28T05:57:23.042Z,20.68
2016-06-28T05:58:23.038Z,20.74
2016-06-28T05:59:23.036Z,20.71
2016-06-28T06:00:23.050Z,20.68
2016-06-28T06:01:23.027Z,20.74
2016-06-28T06:02:23.023Z,20.71
2016-06-28T06:03:23.039Z,20.66
2016-06-28T06:04:23.231Z,20.68
2016-06-28T06:05:23.285Z,20.72
2016-06-28T06:06:23.023Z,20.71
2016-06-28T06:07:23.020Z,20.72
2016-06-28T06:08:23.026Z,20.78
2016-06-28T06:09:23.006Z,20.78
2016-06-28T06:10:23.029Z,20.68
2016-06-28T06:11:23.006Z,20.75
2016-06-28T06:12:23.025Z,20.78
2016-06-28T06:13:23.039Z,20.76
2016-06-28T06:14:23.010Z,20.78
2016-06-28T06:15:23.015Z,20.81
2016-06-28T06:16:23.026Z,20.81
2016-06-28T06:17:23.051Z,20.74
2016-06-28T06:18:23.019Z,20.78
2016-06-28T06:19:23.001Z,20.76
2016-06-28T06:20:23.387Z,20.72
2016-06-28T06:21:23.024Z,20.81
2016-06-28T06:22:23.001Z,20.75
2016-06-28T06:23:23.002Z,20.78
2016-06-28T06:24:22.980Z,20.82
2016-06-28T06:25:22.991Z,20.81
2016-06-28T06:26:23.196Z,20.79
2016-06-28T06:27:23.003Z,20.83
2016-06-28T06:28:22.977Z,20.76
2016-06-28T06:29:22.971Z,20.82
2016-06-28T06:30:22.971Z,20.82
2016-06-28T06:31:22.987Z,20.85
2016-06-28T06:32:22.989Z,20.88
2016-06-28T06:33:23.202Z,20.88
2016-06-28T06:34:22.965Z,20.83
2016-06-28T06:35:23.168Z,20.85
2016-06-28T06:36:22.968Z,20.86
2016-06-28T06:37:22.951Z,20.81
2016-06-28T06:38:22.979Z,20.85
2016-06-28T06:39:22.954Z,20.79
2016-06-28T06:40:22.964Z,20.88
2016-06-28T06:41:22.949Z,20.79
2016-06-28T06:42:22.954Z,20.83
2016-06-28T06:43:22.967Z,20.86
2016-06-28T06:44:22.966Z,20.79
2016-06-28T06:45:23.137Z,20.78
2016-06-28T06:46:22.957Z,20.9
2016-06-28T06:47:22.953Z,20.83
2016-06-28T06:48:22.947Z,20.93
2016-06-28T06:49:22.938Z,20.96
2016-06-28T06:50:22.950Z,20.93
2016-06-28T06:51:22.935Z,20.91
2016-06-28T06:52:22.964Z,20.9
2016-06-28T06:53:22.961Z,20.96
2016-06-28T06:54:22.946Z,20.97
2016-06-28T06:55:23.142Z,20.88
2016-06-28T06:56:22.928Z,20.94
2016-06-28T06:57:22.929Z,20.97
2016-06-28T06:58:22.926Z,20.91
2016-06-28T06:59:22.911Z,20.96
2016-06-28T07:00:23.110Z,21
2016-06-28T07:01:23.114Z,20.97
2016-06-28T07:02:22.918Z,21.01
2016-06-28T07:03:22.910Z,21
2016-06-28T07:04:22.907Z,21.08
2016-06-28T07:05:23.166Z,21.08
2016-06-28T07:06:22.922Z,21.06
2016-06-28T07:07:22.891Z,21.13
2016-06-28T07:08:22.904Z,21.11
2016-06-28T07:09:22.908Z,21.08
2016-06-28T07:10:22.885Z,21.18
2016-06-28T07:11:22.895Z,21.21
2016-06-28T07:12:22.882Z,21.23
2016-06-28T07:13:22.889Z,21.25
2016-06-28T07:14:23.078Z,21.27
2016-06-28T07:15:23.085Z,21.23
2016-06-28T07:16:22.878Z,21.23
2016-06-28T07:17:22.905Z,21.25
2016-06-28T07:18:23.147Z,21.34
2016-06-28T07:19:22.888Z,21.33
2016-06-28T07:20:22.874Z,21.45
2016-06-28T07:21:22.886Z,21.36
2016-06-28T07:22:22.879Z,21.4
2016-06-28T07:23:22.879Z,21.48
2016-06-28T07:24:22.868Z,21.46
2016-06-28T07:25:22.859Z,21.41
2016-06-28T07:26:22.860Z,21.55
2016-06-28T07:27:22.871Z,21.51
2016-06-28T07:28:22.893Z,21.52
2016-06-28T07:29:22.863Z,21.56
2016-06-28T07:30:22.859Z,21.62
2016-06-28T07:31:23.054Z,21.64
2016-06-28T07:32:22.857Z,21.62
2016-06-28T07:33:22.907Z,21.68
2016-06-28T07:34:22.852Z,21.7
2016-06-28T07:35:22.864Z,21.74
2016-06-28T07:36:23.270Z,21.7
2016-06-28T07:37:22.840Z,21.7
2016-06-28T07:38:22.880Z,21.71
2016-06-28T07:39:22.862Z,21.76
2016-06-28T07:40:22.834Z,21.74
2016-06-28T07:41:22.831Z,21.76
2016-06-28T07:42:22.849Z,21.73
2016-06-28T07:43:22.839Z,21.85
2016-06-28T07:44:22.832Z,21.89
2016-06-28T07:45:22.845Z,21.78
2016-06-28T07:46:22.832Z,21.83
2016-06-28T07:47:22.833Z,21.86
2016-06-28T07:48:22.840Z,21.78
2016-06-28T07:49:22.826Z,21.89
2016-06-28T07:50:22.842Z,21.93
2016-06-28T07:51:22.819Z,21.92
2016-06-28T07:52:22.818Z,21.9
2016-06-28T07:53:23.026Z,21.86
2016-06-28T07:54:22.874Z,21.93
2016-06-28T07:55:22.822Z,21.93
2016-06-28T07:56:22.817Z,21.96
2016-06-28T07:57:22.858Z,21.96
2016-06-28T07:58:22.806Z,21.93
2016-06-28T07:59:22.800Z,22.07
2016-06-28T08:00:22.813Z,22
2016-06-28T08:01:22.811Z,22.04
2016-06-28T08:02:22.803Z,22.05
2016-06-28T08:03:22.800Z,22.12
2016-06-28T08:04:22.885Z,22.09
2016-06-28T08:05:22.885Z,22.05
2016-06-28T08:06:22.795Z,22.05
2016-06-28T08:07:22.789Z,22.11
2016-06-28T08:08:22.795Z,22.08
2016-06-28T08:09:22.799Z,22.12
2016-06-28T08:10:22.780Z,22.12
2016-06-28T08:11:22.809Z,22.07
2016-06-28T08:12:23.009Z,22.07
2016-06-28T08:13:22.775Z,22.07
2016-06-28T08:14:22.974Z,22.08
2016-06-28T08:15:22.764Z,22.11
2016-06-28T08:16:22.782Z,22.18
2016-06-28T08:17:22.772Z,22.16
2016-06-28T08:18:22.969Z,22.18
2016-06-28T08:19:22.763Z,22.14
2016-06-28T08:20:22.768Z,22.12
2016-06-28T08:21:22.973Z,22.16
2016-06-28T08:22:22.975Z,22.15
2016-06-28T08:23:22.759Z,22.2
2016-06-28T08:24:22.762Z,22.16
2016-06-28T08:25:22.761Z,22.2
2016-06-28T08:26:22.761Z,22.18
2016-06-28T08:27:22.785Z,22.18
2016-06-28T08:28:22.772Z,22.2
2016-06-28T08:29:22.791Z,22.26
2016-06-28T08:30:22.757Z,22.26
2016-06-28T08:31:22.755Z,22.26
2016-06-28T08:32:22.760Z,22.23
2016-06-28T08:33:22.746Z,22.22
2016-06-28T08:34:22.750Z,22.27
2016-06-28T08:35:22.748Z,22.24
2016-06-28T08:36:22.752Z,22.23
2016-06-28T08:37:22.753Z,22.33
2016-06-28T08:38:22.753Z,22.26
2016-06-28T08:39:22.757Z,22.31
2016-06-28T08:40:22.760Z,22.3
2016-06-28T08:41:22.949Z,22.33
2016-06-28T08:42:22.930Z,22.29
2016-06-28T08:43:22.748Z,22.41
2016-06-28T08:44:22.744Z,22.3
2016-06-28T08:45:22.746Z,22.33
2016-06-28T08:46:22.954Z,22.33
2016-06-28T08:47:22.741Z,22.26
2016-06-28T08:48:22.738Z,22.3
2016-06-28T08:49:22.730Z,22.33
2016-06-28T08:50:22.739Z,22.42
2016-06-28T08:51:22.715Z,22.34
2016-06-28T08:52:22.729Z,22.34
2016-06-28T08:53:22.709Z,22.38
2016-06-28T08:54:22.722Z,22.45
2016-06-28T08:55:22.726Z,22.34
2016-06-28T08:56:22.742Z,22.41
2016-06-28T08:57:22.718Z,22.42
2016-06-28T08:58:22.726Z,22.39
2016-06-28T08:59:22.727Z,22.34
2016-06-28T09:00:22.733Z,22.39
2016-06-28T09:01:22.736Z,22.34
2016-06-28T09:02:22.912Z,22.31
2016-06-28T09:03:22.712Z,22.46
2016-06-28T09:04:22.716Z,22.34
2016-06-28T09:05:22.755Z,22.38
2016-06-28T09:06:22.705Z,22.48
2016-06-28T09:07:22.789Z,22.39
2016-06-28T09:08:22.717Z,22.41
2016-06-28T09:09:22.701Z,22.34
2016-06-28T09:10:22.691Z,22.29
2016-06-28T09:11:22.719Z,22.3
2016-06-28T09:12:22.707Z,22.29
2016-06-28T09:13:22.696Z,22.29
2016-06-28T09:14:22.717Z,22.27
2016-06-28T09:15:22.712Z,22.34
2016-06-28T09:16:22.707Z,22.34
2016-06-28T09:17:22.703Z,22.34
2016-06-28T09:18:22.698Z,22.33
2016-06-28T09:19:22.720Z,22.26
2016-06-28T09:20:22.700Z,22.27
2016-06-28T09:21:22.699Z,22.29
2016-06-28T09:22:22.683Z,22.26
2016-06-28T09:23:22.709Z,22.24
2016-06-28T09:24:22.707Z,22.26
2016-06-28T09:25:22.701Z,22.26
2016-06-28T09:26:22.689Z,22.29
2016-06-28T09:27:22.693Z,22.22
2016-06-28T09:28:22.755Z,22.3
2016-06-28T09:29:22.672Z,22.31
2016-06-28T09:30:22.690Z,22.26
2016-06-28T09:31:22.710Z,22.2
2016-06-28T09:32:22.683Z,22.31
2016-06-28T09:33:22.678Z,22.29
2016-06-28T09:34:22.676Z,22.29
2016-06-28T09:35:22.875Z,22.27
2016-06-28T09:36:22.676Z,22.24
2016-06-28T09:37:22.670Z,22.23
2016-06-28T09:38:22.661Z,22.31
2016-06-28T09:39:22.657Z,22.27
2016-06-28T09:40:22.669Z,22.29
2016-06-28T09:41:22.670Z,22.3
2016-06-28T09:42:22.678Z,22.44
2016-06-28T09:43:22.686Z,22.44
2016-06-28T09:44:22.677Z,22.42
2016-06-28T09:45:22.662Z,22.34
2016-06-28T09:46:22.868Z,22.34
2016-06-28T09:47:22.656Z,22.33
2016-06-28T09:48:22.647Z,22.45
2016-06-28T09:49:22.857Z,22.38
2016-06-28T09:50:22.841Z,22.41
2016-06-28T09:51:22.646Z,22.42
2016-06-28T09:52:22.654Z,22.41
2016-06-28T09:53:22.656Z,22.42
2016-06-28T09:54:22.675Z,22.34
2016-06-28T09:55:22.687Z,22.42
2016-06-28T09:56:22.681Z,22.33
2016-06-28T09:57:22.650Z,22.36
2016-06-28T09:58:22.849Z,22.46
2016-06-28T09:59:22.849Z,22.54
2016-06-28T10:00:22.839Z,22.52
2016-06-28T10:01:22.641Z,22.55
2016-06-28T10:02:22.659Z,22.54
2016-06-28T10:03:22.680Z,22.54
2016-06-28T10:04:22.646Z,22.6
2016-06-28T10:05:22.893Z,22.57
2016-06-28T10:06:22.631Z,22.49
2016-06-28T10:07:22.633Z,22.55
2016-06-28T10:08:22.707Z,22.63
2016-06-28T10:09:22.630Z,22.57
2016-06-28T10:10:22.639Z,22.66
2016-06-28T10:11:22.619Z,22.59
2016-06-28T10:12:22.646Z,22.59
2016-06-28T10:13:22.627Z,22.66
2016-06-28T10:14:22.621Z,22.63
2016-06-28T10:15:22.636Z,22.61
2016-06-28T10:16:22.634Z,22.61
2016-06-28T10:17:22.822Z,22.64
2016-06-28T10:18:22.619Z,22.64
2016-06-28T10:19:22.630Z,22.61
2016-06-28T10:20:22.832Z,22.64
2016-06-28T10:21:22.626Z,22.64
2016-06-28T10:22:22.627Z,22.71
2016-06-28T10:23:22.628Z,22.79
2016-06-28T10:24:22.616Z,22.75
2016-06-28T10:25:22.622Z,22.7
2016-06-28T10:26:22.615Z,22.75
2016-06-28T10:27:22.625Z,22.85
2016-06-28T10:28:22.615Z,22.82
2016-06-28T10:29:22.631Z,22.73
2016-06-28T10:30:22.630Z,22.76
2016-06-28T10:31:22.811Z,22.82
2016-06-28T10:32:22.639Z,22.75
2016-06-28T10:33:22.624Z,22.84
2016-06-28T10:34:22.855Z,22.84
2016-06-28T10:35:22.631Z,22.81
2016-06-28T10:36:22.604Z,22.85
2016-06-28T10:37:22.817Z,22.84
2016-06-28T10:38:22.804Z,22.79
2016-06-28T10:39:22.634Z,22.78
2016-06-28T10:40:22.618Z,22.84
2016-06-28T10:41:22.801Z,22.85
2016-06-28T10:42:22.614Z,22.89
2016-06-28T10:43:22.625Z,22.89
2016-06-28T10:44:22.851Z,22.96
2016-06-28T10:45:22.618Z,22.86
2016-06-28T10:46:22.634Z,22.97
2016-06-28T10:47:22.620Z,22.99
2016-06-28T10:48:22.620Z,22.94
2016-06-28T10:49:22.614Z,23.04
2016-06-28T10:50:22.674Z,23
2016-06-28T10:51:22.613Z,23.01
2016-06-28T10:52:22.597Z,23
2016-06-28T10:53:23.083Z,23
2016-06-28T10:54:22.590Z,23.06
2016-06-28T10:55:22.643Z,23.07
2016-06-28T10:56:22.636Z,23.12
2016-06-28T10:57:22.603Z,23.15
2016-06-28T10:58:22.593Z,23.22
2016-06-28T10:59:22.611Z,23.26
2016-06-28T11:00:22.791Z,23.25
2016-06-28T11:01:22.622Z,23.26
2016-06-28T11:02:22.665Z,23.25
2016-06-28T11:03:22.584Z,23.32
2016-06-28T11:04:22.605Z,23.22
2016-06-28T11:05:22.652Z,23.24
2016-06-28T11:06:22.589Z,23.25
2016-06-28T11:07:22.611Z,23.34
2016-06-28T11:08:22.599Z,23.28
2016-06-28T11:09:22.595Z,23.37
2016-06-28T11:10:22.617Z,23.38
2016-06-28T11:11:22.618Z,23.35
2016-06-28T11:12:22.589Z,23.37
2016-06-28T11:13:22.623Z,23.38
2016-06-28T11:14:22.591Z,23.44
2016-06-28T11:15:22.599Z,23.41
2016-06-28T11:16:22.591Z,23.38
2016-06-28T11:17:22.582Z,23.47
2016-06-28T11:18:22.595Z,23.38
2016-06-28T11:19:22.594Z,23.44
2016-06-28T11:20:22.584Z,23.45
2016-06-28T11:21:22.589Z,23.52
2016-06-28T11:22:22.602Z,23.55
2016-06-28T11:23:22.601Z,23.45
2016-06-28T11:24:22.606Z,23.4
2016-06-28T11:25:22.585Z,23.42
2016-06-28T11:26:22.599Z,23.37
2016-06-28T11:27:22.594Z,23.28
2016-06-28T11:28:22.615Z,23.26
2016-06-28T11:29:22.596Z,23.26
2016-06-28T11:30:22.609Z,23.26
2016-06-28T11:31:22.631Z,23.18
2016-06-28T11:32:22.689Z,23.18
2016-06-28T11:33:22.605Z,23.19
2016-06-28T11:34:22.612Z,23.09
2016-06-28T11:35:22.605Z,23.15
2016-06-28T11:36:22.616Z,23.22
2016-06-28T11:37:22.605Z,23.19
2016-06-28T11:38:22.608Z,23.19
2016-06-28T11:39:22.809Z,23.21
2016-06-28T11:40:22.606Z,23.26
2016-06-28T11:41:22.843Z,23.32
2016-06-28T11:42:22.614Z,23.25
2016-06-28T11:43:47.180Z,23.22
2016-06-28T11:44:42.914Z,23.29
2016-06-28T11:45:32.958Z,23.34
2016-06-28T11:46:40.143Z,23.29
2016-06-28T11:47:22.644Z,23.28
2016-06-28T11:48:22.614Z,23.32
2016-06-28T11:49:22.622Z,23.26
2016-06-28T11:50:22.658Z,23.25
2016-06-28T11:51:22.626Z,23.22
2016-06-28T11:52:22.598Z,23.22
2016-06-28T11:53:22.599Z,23.16
2016-06-28T11:54:22.819Z,23.21
2016-06-28T11:55:22.603Z,23.14
2016-06-28T11:56:22.820Z,23.15
2016-06-28T11:57:22.610Z,23.14
2016-06-28T11:58:22.811Z,23.14
2016-06-28T11:59:22.615Z,23.18
2016-06-28T12:00:22.627Z,23.19
2016-06-28T12:01:22.643Z,23.16
2016-06-28T12:02:22.637Z,23.28
2016-06-28T12:03:22.630Z,23.24
2016-06-28T12:04:22.629Z,23.29
2016-06-28T12:05:22.617Z,23.28
2016-06-28T12:06:22.633Z,23.26
2016-06-28T12:07:22.617Z,23.34
2016-06-28T12:08:22.613Z,23.32
2016-06-28T12:09:22.655Z,23.25
2016-06-28T12:10:22.627Z,23.24
2016-06-28T12:11:22.609Z,23.22
2016-06-28T12:12:22.603Z,23.14
2016-06-28T12:13:22.621Z,23.14
2016-06-28T12:14:22.631Z,23.15
2016-06-28T12:15:22.607Z,23.14
2016-06-28T12:16:23.026Z,23.06
2016-06-28T12:17:22.606Z,23.04
2016-06-28T12:18:22.622Z,23.07
2016-06-28T12:19:22.619Z,23.03
2016-06-28T12:20:22.618Z,23.03
2016-06-28T12:21:22.629Z,23.06
2016-06-28T12:22:22.636Z,22.99
2016-06-28T12:23:22.612Z,23.06
2016-06-28T12:24:22.811Z,22.92
2016-06-28T12:25:22.629Z,22.99
2016-06-28T12:26:22.648Z,22.92
2016-06-28T12:27:22.618Z,22.86
2016-06-28T12:28:22.617Z,22.88
2016-06-28T12:29:22.622Z,22.91
2016-06-28T12:30:22.634Z,22.91
2016-06-28T12:31:22.641Z,22.82
2016-06-28T12:32:22.617Z,22.86
2016-06-28T12:33:22.835Z,22.88
2016-06-28T12:34:22.616Z,22.89
2016-06-28T12:35:22.638Z,22.97
2016-06-28T12:36:22.626Z,22.91
2016-06-28T12:37:22.624Z,23
2016-06-28T12:38:22.622Z,23.04
2016-06-28T12:39:22.622Z,23.12
2016-06-28T12:40:22.622Z,23.15
2016-06-28T12:41:22.828Z,23.12
2016-06-28T12:42:22.625Z,23.19
2016-06-28T12:43:22.652Z,23.15
2016-06-28T12:44:22.625Z,23.22
2016-06-28T12:45:22.635Z,23.28
2016-06-28T12:46:22.824Z,23.19
2016-06-28T12:47:22.838Z,23.18
2016-06-28T12:48:22.623Z,23.22
2016-06-28T12:49:22.624Z,23.22
2016-06-28T12:50:22.650Z,23.25
2016-06-28T12:51:22.637Z,23.35
2016-06-28T12:52:22.622Z,23.42
2016-06-28T12:53:22.628Z,23.44
2016-06-28T12:54:22.640Z,23.41